Time;durP1;ratioP1;P1;durP2;ratioP2;P2;SDS_P1;SDS_P2;PMS_P1;PMS_P2;Temp;Humidity;BMP_temperature;BMP_pressure;BME280_temperature;BME280_humidity;BME280_pressure;Samples;Min_cycle;Max_cycle;Signal;HPM_P1;HPM_P2
2023/12/28 00:00:23;;;;;;;4.18;3.60;;;;;;;4.58;97.18;62469.81;5113361;28;20307;-79
2023/12/28 00:02:50;;;;;;;4.88;3.40;;;;;;;4.53;97.47;62464.66;5113462;28;20237;-79
2023/12/28 00:05:17;;;;;;;7.70;5.00;;;;;;;4.49;98.58;62461.06;5114053;28;20238;-80
2023/12/28 00:07:45;;;;;;;6.85;5.78;;;;;;;4.40;99.82;62448.75;5112840;28;20208;-78
2023/12/28 00:10:12;;;;;;;9.13;6.75;;;;;;;4.32;100.00;62441.03;5115364;28;20216;-79
2023/12/28 00:12:39;;;;;;;11.50;6.80;;;;;;;4.31;100.00;62439.50;5112006;28;20200;-78
2023/12/28 00:15:06;;;;;;;8.15;6.22;;;;;;;4.22;100.00;62432.75;5112295;28;20220;-78
2023/12/28 00:17:33;;;;;;;14.75;8.43;;;;;;;4.17;100.00;62427.63;5113199;28;20196;-79
2023/12/28 00:20:00;;;;;;;6.88;5.45;;;;;;;4.16;100.00;62426.59;5112750;28;20227;-82
2023/12/28 00:22:27;;;;;;;5.40;4.82;;;;;;;4.10;100.00;62417.88;5113461;28;20254;-79
2023/12/28 00:24:55;;;;;;;8.73;6.47;;;;;;;4.00;100.00;62407.59;5113289;28;20220;-78
2023/12/28 00:27:22;;;;;;;6.93;6.00;;;;;;;3.92;100.00;62406.94;5111552;28;20319;-77
2023/12/28 00:29:49;;;;;;;6.30;5.10;;;;;;;3.95;100.00;62404.97;5110953;28;20257;-78
2023/12/28 00:32:16;;;;;;;6.50;4.70;;;;;;;3.94;100.00;62406.97;5111711;28;20254;-77
2023/12/28 00:34:43;;;;;;;4.93;3.55;;;;;;;3.91;100.00;62401.38;5111526;28;20216;-79
2023/12/28 00:37:10;;;;;;;5.00;3.60;;;;;;;3.89;100.00;62401.84;5111627;28;20207;-78
2023/12/28 00:39:38;;;;;;;4.57;3.33;;;;;;;3.86;100.00;62395.72;5113009;28;20513;-78
2023/12/28 00:42:06;;;;;;;4.78;3.47;;;;;;;3.80;100.00;62392.06;5110706;28;20287;-78
2023/12/28 00:44:33;;;;;;;3.92;3.45;;;;;;;3.86;100.00;62400.75;5110177;28;20244;-78
2023/12/28 00:47:00;;;;;;;7.00;4.68;;;;;;;3.79;100.00;62389.03;5112782;28;20203;-78
2023/12/28 00:49:27;;;;;;;8.32;5.50;;;;;;;3.74;100.00;62386.41;5110079;28;20220;-78
2023/12/28 00:51:54;;;;;;;7.55;5.70;;;;;;;3.66;100.00;62375.66;5111297;28;20196;-79
2023/12/28 00:54:21;;;;;;;7.35;5.25;;;;;;;3.64;100.00;62368.59;5113746;28;20220;-79
2023/12/28 00:56:48;;;;;;;6.70;5.63;;;;;;;3.65;100.00;62374.63;5111343;28;20196;-78
2023/12/28 00:59:16;;;;;;;7.30;5.53;;;;;;;3.68;100.00;62377.72;5110317;28;20251;-78
2023/12/28 01:01:43;;;;;;;9.13;6.20;;;;;;;3.70;100.00;62379.25;5109940;28;20223;-78
2023/12/28 01:04:11;;;;;;;14.63;6.25;;;;;;;3.67;100.00;62373.66;5114892;28;20239;-79
2023/12/28 01:06:38;;;;;;;12.90;5.55;;;;;;;3.66;100.00;62375.66;5109769;28;20263;-78
2023/12/28 01:09:07;;;;;;;9.45;5.32;;;;;;;3.68;100.00;62380.22;5110795;28;20216;-79
2023/12/28 01:11:34;;;;;;;6.47;4.85;;;;;;;3.72;100.00;62381.84;5112382;28;20256;-78
2023/12/28 01:14:01;;;;;;;7.63;4.68;;;;;;;3.65;100.00;62377.16;5109793;28;20215;-79
2023/12/28 01:16:29;;;;;;;8.85;5.72;;;;;;;3.64;100.00;62376.13;5111110;28;20260;-78
2023/12/28 01:18:56;;;;;;;6.97;4.45;;;;;;;3.67;100.00;62381.72;5110337;28;20226;-79
2023/12/28 01:21:24;;;;;;;5.10;4.60;;;;;;;3.62;100.00;62374.06;5111228;28;20245;-79
2023/12/28 01:23:51;;;;;;;5.57;4.28;;;;;;;3.70;100.00;62384.28;5110967;28;20206;-78
2023/12/28 01:26:18;;;;;;;4.45;4.05;;;;;;;3.69;100.00;62381.28;5111832;28;20192;-79
2023/12/28 01:28:45;;;;;;;7.97;3.35;;;;;;;3.64;100.00;62373.63;5109737;28;20249;-78
2023/12/28 01:31:12;;;;;;;4.68;3.55;;;;;;;3.61;100.00;62372.53;5110409;28;20195;-78
2023/12/28 01:33:40;;;;;;;8.40;4.60;;;;;;;3.63;100.00;62372.06;5108699;28;20192;-78
2023/12/28 01:36:17;;;;;;;6.80;4.97;;;;;;;3.68;100.00;62380.22;5110815;28;20256;-79
2023/12/28 01:38:44;;;;;;;8.40;5.88;;;;;;;3.75;100.00;62389.94;5109806;28;20198;-78
2023/12/28 01:41:12;;;;;;;13.77;6.47;;;;;;;3.77;100.00;62388.97;5109251;28;20231;-78
2023/12/28 01:43:39;;;;;;;6.07;5.47;;;;;;;3.81;100.00;62393.09;5109963;28;20204;-78
2023/12/28 01:46:06;;;;;;;7.28;6.15;;;;;;;3.77;100.00;62383.94;5108603;28;20192;-78
2023/12/28 01:48:33;;;;;;;7.35;5.40;;;;;;;3.72;100.00;62381.84;5109727;28;20234;-78
2023/12/28 01:51:01;;;;;;;4.90;3.60;;;;;;;3.76;100.00;62388.47;5110058;28;20212;-78
2023/12/28 01:53:28;;;;;;;4.97;3.50;;;;;;;3.84;100.00;62394.19;5109097;28;20401;-78
2023/12/28 01:55:55;;;;;;;4.07;2.70;;;;;;;3.83;100.00;62390.13;5108184;28;20223;-78
2023/12/28 01:58:22;;;;;;;2.58;2.38;;;;;;;3.77;100.00;62383.94;5111488;28;20436;-78
2023/12/28 02:00:49;;;;;;;2.50;2.28;;;;;;;3.71;100.00;62380.31;5112000;28;20203;-79
2023/12/28 02:03:17;;;;;;;2.22;2.08;;;;;;;3.65;100.00;62376.63;5110309;28;20203;-78
2023/12/28 02:05:44;;;;;;;2.08;1.98;;;;;;;3.65;100.00;62374.63;5109991;28;20216;-78
2023/12/28 02:08:12;;;;;;;2.00;1.90;;;;;;;3.60;100.00;62366.97;5113062;28;20196;-79
2023/12/28 02:10:40;;;;;;;1.60;1.60;;;;;;;3.72;100.00;62376.28;5110848;28;20241;-79
2023/12/28 02:13:06;;;;;;;1.70;1.40;;;;;;;3.62;100.00;62371.03;5107960;28;20192;-77
2023/12/28 02:15:33;;;;;;;1.65;1.55;;;;;;;3.55;100.00;62367.38;5110757;28;20282;-78
2023/12/28 02:18:02;;;;;;;1.63;1.52;;;;;;;3.51;100.00;62363.28;5112049;28;20195;-79
2023/12/28 02:20:28;;;;;;;1.50;1.40;;;;;;;3.50;100.00;62362.22;5109115;28;20233;-77
2023/12/28 02:22:55;;;;;;;2.20;2.00;;;;;;;3.47;100.00;62359.16;5107904;28;20238;-78
2023/12/28 02:25:24;;;;;;;1.98;1.88;;;;;;;3.42;100.00;62348.47;5108263;28;20211;-79
2023/12/28 02:27:51;;;;;;;1.65;1.55;;;;;;;3.47;99.15;62356.13;5107235;28;20192;-78
2023/12/28 02:30:18;;;;;;;1.98;1.80;;;;;;;3.44;98.46;62355.56;5109632;28;20215;-79
2023/12/28 02:33:04;;;;;;;1.70;1.60;;;;;;;3.48;97.59;62355.16;5110155;28;20202;-78
2023/12/28 02:35:33;;;;;;;2.05;1.85;;;;;;;3.48;97.52;62354.63;5107850;28;20250;-80
2023/12/28 02:38:02;;;;;;;1.75;1.65;;;;;;;3.48;96.64;62359.69;5108394;28;20216;-78
2023/12/28 02:40:31;;;;;;;1.20;1.10;;;;;;;3.47;96.23;62353.59;5110029;28;20215;-80
2023/12/28 02:42:58;;;;;;;1.27;1.13;;;;;;;3.48;94.26;62360.19;5108308;28;20415;-80
2023/12/28 02:45:25;;;;;;;1.40;1.38;;;;;;;3.41;91.85;62350.47;5107808;28;20224;-78
2023/12/28 02:47:52;;;;;;;7.50;1.90;;;;;;;3.40;92.06;62346.91;5110727;28;20252;-79
2023/12/28 02:50:19;;;;;;;5.43;3.17;;;;;;;3.39;94.62;62350.41;5108542;28;20215;-79
2023/12/28 02:52:46;;;;;;;6.65;4.18;;;;;;;3.44;100.00;62356.06;5107964;28;20255;-79
2023/12/28 02:55:13;;;;;;;4.85;4.45;;;;;;;3.44;100.00;62353.03;5107219;28;20216;-78
2023/12/28 02:57:41;;;;;;;5.50;5.00;;;;;;;3.38;100.00;62349.41;5107860;28;20196;-78
2023/12/28 03:00:10;;;;;;;7.75;6.03;;;;;;;3.38;100.00;62349.91;5106370;28;20224;-78
2023/12/28 03:02:37;;;;;;;7.75;5.70;;;;;;;3.34;100.00;62343.28;5109294;28;20238;-78
2023/12/28 03:05:06;;;;;;;6.43;5.25;;;;;;;3.37;100.00;62346.34;5107802;28;20223;-77
2023/12/28 03:07:33;;;;;;;6.13;4.85;;;;;;;3.35;100.00;62349.34;5106328;28;20196;-79
2023/12/28 03:10:00;;;;;;;7.40;4.63;;;;;;;3.31;100.00;62340.19;5107522;28;20212;-80
2023/12/28 03:12:27;;;;;;;3.85;3.47;;;;;;;3.32;100.00;62338.72;5106734;28;20253;-78
2023/12/28 03:14:56;;;;;;;3.85;3.55;;;;;;;3.32;100.00;62343.75;5108089;28;20212;-78
2023/12/28 03:17:22;;;;;;;2.42;2.08;;;;;;;3.26;100.00;62332.53;5107005;28;20374;-79
2023/12/28 03:19:49;;;;;;;2.20;2.00;;;;;;;3.25;100.00;62341.56;5086764;28;20224;-79
2023/12/28 03:22:17;;;;;;;2.10;1.98;;;;;;;3.19;100.00;62330.38;5090961;28;20232;-78
2023/12/28 03:24:44;;;;;;;1.95;1.80;;;;;;;3.15;99.44;62323.75;5086922;28;20216;-79
2023/12/28 03:27:11;;;;;;;2.22;1.83;;;;;;;3.18;98.01;62323.78;5086486;28;20242;-78
2023/12/28 03:29:38;;;;;;;5.00;4.38;;;;;;;3.11;98.23;62317.13;5087449;28;20221;-79
2023/12/28 03:32:07;;;;;;;7.38;5.22;;;;;;;3.07;100.00;62315.00;5086444;28;20280;-77
2023/12/28 03:34:34;;;;;;;5.65;5.13;;;;;;;3.02;100.00;62307.84;5087212;28;20441;-78
2023/12/28 03:37:01;;;;;;;14.68;6.30;;;;;;;2.94;100.00;62299.66;5089073;28;20239;-77
2023/12/28 03:39:28;;;;;;;14.77;7.78;;;;;;;2.92;100.00;62302.63;5085849;28;20282;-80
2023/12/28 03:41:55;;;;;;;10.65;5.80;;;;;;;2.93;100.00;62303.66;5088149;28;20236;-80
2023/12/28 03:44:22;;;;;;;4.82;4.30;;;;;;;2.85;100.00;62287.34;5106049;28;20546;-77
2023/12/28 03:46:49;;;;;;;4.85;4.05;;;;;;;2.75;100.00;62282.13;5106525;28;20229;-77
2023/12/28 03:49:18;;;;;;;3.47;3.17;;;;;;;2.70;100.00;62276.97;5108999;28;20231;-79
2023/12/28 03:51:47;;;;;;;7.63;5.43;;;;;;;2.62;100.00;62271.81;5107007;28;20188;-79
2023/12/28 03:54:13;;;;;;;5.03;4.32;;;;;;;2.57;100.00;62268.66;5106772;28;20329;-79
2023/12/28 03:56:40;;;;;;;7.72;5.50;;;;;;;2.49;100.00;62255.91;5106318;28;20298;-77
2023/12/28 03:59:07;;;;;;;8.68;5.85;;;;;;;2.40;100.00;62249.19;5105676;28;20297;-78
2023/12/28 04:01:34;;;;;;;5.57;5.05;;;;;;;2.33;100.00;62240.00;5106014;28;20241;-78
2023/12/28 04:04:01;;;;;;;9.90;5.80;;;;;;;2.21;100.00;62224.66;5107756;28;20410;-79
2023/12/28 04:06:29;;;;;;;8.43;6.57;;;;;;;2.15;100.00;62224.03;5106820;28;20196;-78
2023/12/28 04:08:56;;;;;;;8.45;6.25;;;;;;;2.12;100.00;62222.94;5105841;28;20233;-78
2023/12/28 04:11:23;;;;;;;7.45;4.43;;;;;;;2.13;100.00;62218.94;5106229;28;20259;-78
2023/12/28 04:13:50;;;;;;;7.18;4.72;;;;;;;2.06;100.00;62211.75;5105105;28;20210;-77
2023/12/28 04:16:17;;;;;;;6.43;4.35;;;;;;;1.98;100.00;62206.06;5105392;28;20517;-78
2023/12/28 04:18:44;;;;;;;4.28;3.88;;;;;;;1.94;100.00;62197.44;5105629;28;20196;-77
2023/12/28 04:21:11;;;;;;;8.93;4.60;;;;;;;1.95;100.00;62202.97;5114670;28;20200;-78
2023/12/28 04:23:40;;;;;;;5.47;4.97;;;;;;;1.98;100.00;62206.56;5111782;28;20249;-78
2023/12/28 04:26:07;;;;;;;5.13;4.30;;;;;;;2.01;100.00;62207.16;5108232;28;20218;-77
2023/12/28 04:28:34;;;;;;;7.03;4.60;;;;;;;2.02;100.00;62210.19;5108690;28;20188;-78
2023/12/28 04:31:03;;;;;;;7.22;4.82;;;;;;;2.00;100.00;62211.13;5109042;28;20270;-78
2023/12/28 04:33:30;;;;;;;4.88;3.33;;;;;;;2.03;100.00;62209.19;5109538;28;20200;-79
2023/12/28 04:35:57;;;;;;;5.72;3.65;;;;;;;2.00;100.00;62208.13;5113159;28;20219;-78
2023/12/28 04:38:24;;;;;;;4.45;3.30;;;;;;;1.96;100.00;62202.00;5111053;28;20221;-79
2023/12/28 04:40:52;;;;;;;3.90;3.63;;;;;;;2.01;100.00;62207.16;5109670;28;20257;-78
2023/12/28 04:43:19;;;;;;;4.47;3.50;;;;;;;2.05;100.00;62208.22;5107975;28;20234;-77
2023/12/28 04:45:46;;;;;;;3.92;3.28;;;;;;;2.06;100.00;62211.75;5108337;28;20228;-78
2023/12/28 04:48:13;;;;;;;3.22;2.95;;;;;;;2.09;100.00;62214.84;5108740;28;20500;-79
2023/12/28 04:50:40;;;;;;;3.50;3.20;;;;;;;2.17;100.00;62223.06;5110572;28;20267;-78
2023/12/28 04:53:07;;;;;;;4.60;2.40;;;;;;;2.20;100.00;62226.66;5111084;28;20196;-78
2023/12/28 04:55:34;;;;;;;2.40;1.63;;;;;;;2.16;100.00;62224.53;5107691;28;20288;-78
2023/12/28 04:58:02;;;;;;;2.60;1.98;;;;;;;2.16;100.00;62222.03;5109086;28;20210;-78
2023/12/28 05:00:29;;;;;;;2.15;1.90;;;;;;;2.22;100.00;62233.22;5109273;28;20238;-77
2023/12/28 05:02:56;;;;;;;2.80;2.20;;;;;;;2.23;100.00;62229.22;5109922;28;20277;-78
2023/12/28 05:05:23;;;;;;;3.22;1.75;;;;;;;2.15;100.00;62218.50;5110243;28;20216;-78
2023/12/28 05:07:49;;;;;;;1.70;1.58;;;;;;;2.21;100.00;62229.66;5111555;28;20454;-78
2023/12/28 05:10:16;;;;;;;1.50;1.40;;;;;;;2.31;100.00;62237.94;5108337;28;20265;-77
2023/12/28 05:12:43;;;;;;;2.35;1.50;;;;;;;2.32;100.00;62236.47;5108358;28;20202;-78
2023/12/28 05:15:12;;;;;;;2.35;2.00;;;;;;;2.36;100.00;62242.56;5108303;28;20436;-78
2023/12/28 05:17:39;;;;;;;3.22;1.98;;;;;;;2.43;100.00;62247.25;5109498;28;20537;-77
2023/12/28 05:20:07;;;;;;;2.22;2.00;;;;;;;2.58;100.00;62267.16;5111470;28;20212;-78
2023/12/28 05:22:34;;;;;;;2.95;2.58;;;;;;;2.59;100.00;62260.66;5110192;28;20247;-78
2023/12/28 05:25:01;;;;;;;3.42;2.10;;;;;;;2.59;100.00;62271.22;5111482;28;20239;-77
2023/12/28 05:27:28;;;;;;;2.85;1.85;;;;;;;2.57;100.00;62266.66;5107767;28;20225;-79
2023/12/28 05:29:57;;;;;;;2.70;2.50;;;;;;;2.59;100.00;62268.69;5108864;28;20231;-78
2023/12/28 05:32:26;;;;;;;2.83;1.92;;;;;;;2.62;100.00;62268.75;5107286;28;20196;-78
2023/12/28 05:34:52;;;;;;;2.60;2.40;;;;;;;2.64;100.00;62268.81;5109264;28;20313;-77
2023/12/28 05:37:19;;;;;;;2.75;1.80;;;;;;;2.63;100.00;62272.81;5110809;28;20204;-78
2023/12/28 05:39:46;;;;;;;3.53;2.03;;;;;;;2.67;100.00;62273.91;5109593;28;20219;-79
2023/12/28 05:42:13;;;;;;;3.33;2.40;;;;;;;2.63;100.00;62269.78;5108383;28;20196;-78
2023/12/28 05:44:40;;;;;;;2.40;2.20;;;;;;;2.63;100.00;62270.31;5108518;28;20466;-77
2023/12/28 05:47:07;;;;;;;2.97;2.28;;;;;;;2.63;100.00;62274.81;5107610;28;20516;-79
2023/12/28 05:49:35;;;;;;;2.38;2.17;;;;;;;2.55;100.00;62259.59;5110201;28;20300;-78
2023/12/28 05:52:03;;;;;;;3.28;2.70;;;;;;;2.53;100.00;62262.53;5109949;28;20188;-78
2023/12/28 05:54:30;;;;;;;4.43;3.90;;;;;;;2.52;100.00;62256.47;5109374;28;20224;-78
2023/12/28 05:56:57;;;;;;;3.92;3.05;;;;;;;2.49;100.00;62257.91;5107456;28;20226;-78
2023/12/28 05:59:26;;;;;;;3.28;2.83;;;;;;;2.45;100.00;62253.81;5107479;28;20219;-77
2023/12/28 06:01:53;;;;;;;4.07;2.55;;;;;;;2.39;100.00;62245.66;5108022;28;20250;-80
2023/12/28 06:04:19;;;;;;;9.85;5.75;;;;;;;2.49;100.00;62252.88;5108446;28;20253;-78
2023/12/28 06:06:48;;;;;;;16.02;8.50;;;;;;;2.46;100.00;62257.34;5108742;28;20192;-79
2023/12/28 06:09:15;;;;;;;8.60;6.00;;;;;;;2.41;100.00;62245.19;5110011;28;20219;-79
2023/12/28 06:11:42;;;;;;;9.90;6.90;;;;;;;2.40;100.00;62249.19;5107588;28;20203;-78
2023/12/28 06:14:09;;;;;;;11.55;7.82;;;;;;;2.38;100.00;62241.59;5106815;28;20215;-78
2023/12/28 06:16:36;;;;;;;7.95;5.35;;;;;;;2.38;100.00;62242.13;5109429;28;20204;-78
2023/12/28 06:19:03;;;;;;;5.65;5.15;;;;;;;2.39;100.00;62243.13;5107825;28;20223;-78
2023/12/28 06:21:30;;;;;;;6.82;4.50;;;;;;;2.46;100.00;62250.34;5112458;28;20513;-78
2023/12/28 06:23:58;;;;;;;4.50;3.47;;;;;;;2.49;100.00;62250.91;5108189;28;20273;-78
2023/12/28 06:26:25;;;;;;;6.10;4.35;;;;;;;2.47;100.00;62256.38;5106517;28;20251;-77
2023/12/28 06:28:52;;;;;;;5.93;4.10;;;;;;;2.54;100.00;62261.06;5106868;28;20196;-78
2023/12/28 06:31:19;;;;;;;3.35;3.05;;;;;;;2.52;100.00;62259.00;5107046;28;20196;-78
2023/12/28 06:33:46;;;;;;;4.05;3.40;;;;;;;2.59;100.00;62268.69;5108736;28;20403;-77
2023/12/28 06:36:13;;;;;;;15.02;9.05;;;;;;;2.59;100.00;62270.72;5112423;28;20199;-77
2023/12/28 06:38:40;;;;;;;17.02;10.02;;;;;;;2.58;100.00;62265.16;5107235;28;20210;-79
2023/12/28 06:41:13;;;;;;;20.48;11.07;;;;;;;2.60;100.00;62272.25;5107229;28;20196;-77
2023/12/28 06:43:40;;;;;;;8.32;6.00;;;;;;;2.65;100.00;62272.38;5106021;28;20223;-77
2023/12/28 06:46:07;;;;;;;13.60;8.65;;;;;;;2.66;100.00;62273.38;5106865;28;20230;-78
2023/12/28 06:48:34;;;;;;;11.02;7.72;;;;;;;2.69;100.00;62275.97;5108683;28;20473;-78
2023/12/28 06:51:01;;;;;;;8.32;6.93;;;;;;;2.71;100.00;62281.03;5108454;28;20216;-78
2023/12/28 06:53:27;;;;;;;10.63;7.55;;;;;;;2.69;100.00;62275.97;5106328;28;20253;-79
2023/12/28 06:55:54;;;;;;;10.77;8.38;;;;;;;2.77;100.00;62289.72;5106405;28;20224;-78
2023/12/28 06:58:22;;;;;;;11.73;8.10;;;;;;;2.73;100.00;62282.56;5107035;28;20208;-78
2023/12/28 07:00:49;;;;;;;12.35;8.18;;;;;;;2.83;100.00;62290.34;5106917;28;20234;-78
2023/12/28 07:03:16;;;;;;;12.77;9.05;;;;;;;2.85;100.00;62294.91;5107613;28;20231;-77
2023/12/28 07:05:43;;;;;;;13.48;9.48;;;;;;;2.86;100.00;62290.91;5111002;28;20216;-78
2023/12/28 07:08:10;;;;;;;11.50;8.85;;;;;;;2.95;100.00;62303.19;5105321;28;20202;-79
2023/12/28 07:10:37;;;;;;;11.95;8.05;;;;;;;3.07;100.00;62315.50;5107162;28;20208;-78
2023/12/28 07:13:04;;;;;;;13.48;7.65;;;;;;;3.08;100.00;62318.53;5106860;28;20461;-78
2023/12/28 07:15:33;;;;;;;9.48;8.25;;;;;;;3.26;100.00;62334.53;5109712;28;20238;-79
2023/12/28 07:18:00;;;;;;;20.77;11.77;;;;;;;3.48;100.00;62359.69;5106374;28;20203;-78
2023/12/28 07:20:26;;;;;;;19.45;13.40;;;;;;;3.75;100.00;62382.41;5107329;28;20220;-78
2023/12/28 07:22:53;;;;;;;17.83;11.65;;;;;;;3.82;100.00;62389.59;5109371;28;20199;-78
2023/12/28 07:25:21;;;;;;;20.73;11.82;;;;;;;4.02;100.00;62412.19;5106630;28;20219;-78
2023/12/28 07:27:48;;;;;;;16.27;12.23;;;;;;;4.07;100.00;62414.81;5107256;28;20261;-78
2023/12/28 07:30:16;;;;;;;18.00;11.90;;;;;;;3.89;100.00;62399.31;5107963;28;20208;-78
2023/12/28 07:32:44;;;;;;;22.30;12.40;;;;;;;3.83;100.00;62393.13;5106685;28;20217;-78
2023/12/28 07:35:11;;;;;;;19.10;12.10;;;;;;;3.91;100.00;62398.34;5108830;28;20235;-77
2023/12/28 07:37:38;;;;;;;19.95;12.18;;;;;;;3.95;100.00;62404.97;5106761;28;20230;-78
2023/12/28 07:40:06;;;;;;;18.17;12.05;;;;;;;4.05;100.00;62412.75;5106614;28;20219;-78
2023/12/28 07:42:34;;;;;;;18.58;11.57;;;;;;;3.85;100.00;62392.19;5105976;28;20285;-79
2023/12/28 07:45:01;;;;;;;16.50;12.30;;;;;;;3.97;100.00;62407.53;5109086;28;20239;-78
2023/12/28 07:47:28;;;;;;;15.43;11.70;;;;;;;4.02;100.00;62414.69;5107431;28;20245;-77
2023/12/28 07:49:56;;;;;;;17.85;12.63;;;;;;;4.14;100.00;62425.03;5110323;28;20215;-78
2023/12/28 07:52:23;;;;;;;15.68;11.52;;;;;;;4.15;100.00;62423.56;5107458;28;20188;-78
2023/12/28 07:54:50;;;;;;;17.88;12.57;;;;;;;4.18;100.00;62429.16;5110594;28;20237;-78
2023/12/28 07:57:17;;;;;;;14.75;11.00;;;;;;;4.27;100.00;62438.41;5111642;28;20200;-79
2023/12/28 07:59:44;;;;;;;18.02;11.48;;;;;;;4.36;100.00;62447.16;5113000;28;20241;-78
2023/12/28 08:02:11;;;;;;;20.13;11.13;;;;;;;4.45;100.00;62454.41;5112477;28;20203;-78
2023/12/28 08:04:38;;;;;;;13.43;9.75;;;;;;;4.54;100.00;62466.19;5110657;28;20231;-78
2023/12/28 08:07:08;;;;;;;12.57;9.43;;;;;;;4.61;100.00;62475.41;5115160;28;20200;-78
2023/12/28 08:09:35;;;;;;;13.48;9.60;;;;;;;4.72;100.00;62484.75;5114917;28;20254;-77
2023/12/28 08:12:02;;;;;;;17.23;11.10;;;;;;;4.72;100.00;62486.75;5112234;28;20196;-77
2023/12/28 08:14:29;;;;;;;16.08;10.73;;;;;;;4.66;100.00;62476.03;5115190;28;20238;-77
2023/12/28 08:16:56;;;;;;;16.63;11.05;;;;;;;4.64;100.00;62478.50;5111374;28;20207;-77
2023/12/28 08:19:23;;;;;;;18.13;10.68;;;;;;;4.67;100.00;62479.06;5112051;28;20212;-77
2023/12/28 08:21:50;;;;;;;19.80;12.32;;;;;;;4.72;100.00;62484.22;5110332;28;20192;-77
2023/12/28 08:24:18;;;;;;;15.73;10.93;;;;;;;4.81;100.00;62490.97;5112724;28;20237;-78
2023/12/28 08:26:45;;;;;;;20.17;11.00;;;;;;;4.97;100.00;62512.47;5111333;28;20408;-79
2023/12/28 08:29:12;;;;;;;15.55;10.95;;;;;;;5.02;100.00;62509.53;5109823;28;20219;-78
2023/12/28 08:31:39;;;;;;;16.60;11.50;;;;;;;5.13;100.00;62528.94;5115562;28;20196;-78
2023/12/28 08:34:08;;;;;;;17.70;12.48;;;;;;;5.20;100.00;62533.13;5113181;28;20216;-78
2023/12/28 08:36:34;;;;;;;16.85;11.40;;;;;;;5.19;100.00;62532.09;5109984;28;20230;-78
2023/12/28 08:39:01;;;;;;;18.67;12.23;;;;;;;5.38;100.00;62557.25;5109584;28;20339;-77
2023/12/28 08:41:30;;;;;;;20.75;11.70;;;;;;;5.36;100.00;62547.59;5110832;28;20204;-78
2023/12/28 08:43:57;;;;;;;20.77;11.50;;;;;;;5.27;100.00;62543.38;5108266;28;20251;-78
2023/12/28 08:46:24;;;;;;;14.43;11.40;;;;;;;5.30;100.00;62543.94;5109108;28;20199;-77
2023/12/28 08:48:51;;;;;;;14.50;11.00;;;;;;;5.53;100.00;62567.63;5110871;28;20204;-77
2023/12/28 08:51:19;;;;;;;17.02;11.60;;;;;;;5.59;100.00;62571.28;5110457;28;20202;-77
2023/12/28 08:53:46;;;;;;;14.38;11.20;;;;;;;5.78;100.00;62595.41;5109325;28;20214;-77
2023/12/28 08:56:15;;;;;;;20.67;11.95;;;;;;;5.83;100.00;62601.09;5110327;28;20192;-78
2023/12/28 08:58:43;;;;;;;19.95;11.15;;;;;;;6.03;100.00;62621.19;5108246;28;20497;-77
2023/12/28 09:01:10;;;;;;;13.13;10.10;;;;;;;6.19;100.00;62637.16;5109062;28;20195;-77
2023/12/28 09:03:37;;;;;;;16.42;10.30;;;;;;;6.31;100.00;62649.53;5110335;28;20560;-77
2023/12/28 09:06:04;;;;;;;14.48;10.70;;;;;;;6.35;98.93;62648.59;5112327;28;20199;-78
2023/12/28 09:08:31;;;;;;;14.52;11.00;;;;;;;6.40;98.01;62656.28;5108724;28;20214;-77
2023/12/28 09:10:58;;;;;;;14.18;10.13;;;;;;;6.40;98.19;62653.75;5110024;28;20239;-78
2023/12/28 09:13:25;;;;;;;17.38;9.95;;;;;;;6.43;98.12;62661.91;5109616;28;20214;-79
2023/12/28 09:15:54;;;;;;;13.68;11.00;;;;;;;6.55;97.43;62669.75;5111835;28;20216;-77
2023/12/28 09:18:20;;;;;;;16.77;10.43;;;;;;;6.64;97.46;62681.03;5108834;28;20255;-79
2023/12/28 09:20:49;;;;;;;20.15;10.07;;;;;;;6.58;96.83;62674.84;5110138;28;20216;-78
2023/12/28 09:23:16;;;;;;;18.48;10.20;;;;;;;6.59;97.13;62678.91;5111721;28;20203;-78
2023/12/28 09:25:43;;;;;;;17.42;10.32;;;;;;;6.79;96.67;62697.03;5108777;28;20598;-79
2023/12/28 09:28:10;;;;;;;16.73;9.93;;;;;;;6.84;96.33;62699.66;5109306;28;20497;-78
2023/12/28 09:30:37;;;;;;;13.95;9.77;;;;;;;7.04;95.64;62725.34;5109576;28;20311;-78
2023/12/28 09:33:07;;;;;;;13.68;9.73;;;;;;;6.96;94.42;62714.56;5110702;28;20198;-78
2023/12/28 09:35:35;;;;;;;18.92;9.63;;;;;;;7.01;95.13;62727.31;5109390;28;20212;-78
2023/12/28 09:38:02;;;;;;;19.45;9.73;;;;;;;7.19;92.86;62742.31;5111717;28;20251;-79
2023/12/28 09:40:29;;;;;;;15.30;8.88;;;;;;;7.17;93.23;62738.25;5110068;28;20236;-79
2023/12/28 09:43:02;;;;;;;15.68;9.23;;;;;;;7.38;91.53;62757.38;5110577;28;20242;-79
2023/12/28 09:45:29;;;;;;;12.32;9.55;;;;;;;7.39;90.63;62760.94;5110752;28;20238;-78
2023/12/28 09:47:55;;;;;;;23.90;10.20;;;;;;;7.52;89.98;62774.38;5109892;28;20219;-79
2023/12/28 09:50:26;;;;;;;21.33;9.38;;;;;;;7.76;89.81;62796.09;5109593;28;20568;-78
2023/12/28 09:52:53;;;;;;;11.68;9.48;;;;;;;7.93;87.22;62811.09;5110889;28;20192;-79
2023/12/28 09:55:20;;;;;;;15.05;9.50;;;;;;;8.05;85.73;62826.03;5110284;28;20216;-78
2023/12/28 09:57:47;;;;;;;15.82;9.80;;;;;;;8.13;85.15;62834.81;5111734;28;20196;-78
2023/12/28 10:00:14;;;;;;;18.73;9.32;;;;;;;8.10;84.58;62831.19;5110222;28;20215;-78
2023/12/28 10:02:41;;;;;;;15.50;9.15;;;;;;;8.30;84.05;62856.94;5109060;28;20188;-77
2023/12/28 10:05:09;;;;;;;13.32;9.50;;;;;;;8.11;83.56;62830.19;5111708;28;20639;-78
2023/12/28 10:07:43;;;;;;;13.70;9.88;;;;;;;8.27;82.88;62850.78;5110729;28;20203;-78
2023/12/28 10:10:10;;;;;;;14.57;9.75;;;;;;;8.34;83.61;62856.00;5107887;28;20219;-78
2023/12/28 10:12:37;;;;;;;11.35;8.35;;;;;;;8.48;83.05;62873.00;5108042;28;20421;-78
2023/12/28 10:15:04;;;;;;;14.27;9.23;;;;;;;8.49;82.09;62871.47;5110902;28;20220;-78
2023/12/28 10:17:33;;;;;;;12.85;9.50;;;;;;;8.40;81.52;62859.13;5108348;28;20192;-79
2023/12/28 10:20:07;;;;;;;16.42;10.80;;;;;;;8.51;82.14;62873.03;5108518;28;20283;-79
2023/12/28 10:22:34;;;;;;;17.50;11.15;;;;;;;8.28;82.77;62847.25;5112308;28;20214;-78
2023/12/28 10:25:03;;;;;;;19.75;12.30;;;;;;;8.41;83.13;62862.69;5111394;28;20255;-78
2023/12/28 10:27:30;;;;;;;16.60;11.40;;;;;;;8.50;82.29;62872.53;5107438;28;20238;-77
2023/12/28 10:29:57;;;;;;;17.25;12.43;;;;;;;8.50;82.62;62875.06;5107617;28;20216;-79
2023/12/28 10:32:24;;;;;;;17.13;10.98;;;;;;;8.67;81.34;62889.56;5110666;28;20222;-79
2023/12/28 10:34:53;;;;;;;24.55;13.80;;;;;;;8.58;82.71;62882.78;5108850;28;20472;-79
2023/12/28 10:37:21;;;;;;;23.15;13.32;;;;;;;8.74;83.18;62896.78;5106950;28;20199;-79
2023/12/28 10:39:50;;;;;;;19.45;14.30;;;;;;;8.78;81.97;62904.00;5107786;28;20448;-78
2023/12/28 10:42:31;;;;;;;20.42;14.40;;;;;;;8.90;81.60;62918.94;5111834;28;20217;-79
2023/12/28 10:45:04;;;;;;;24.10;13.85;;;;;;;9.07;80.72;62930.91;5107665;28;20232;-78
2023/12/28 10:47:33;;;;;;;22.35;14.20;;;;;;;9.09;80.05;62933.47;5108576;28;20200;-79
2023/12/28 10:50:02;;;;;;;22.73;14.52;;;;;;;9.10;79.82;62934.00;5109798;28;20216;-79
2023/12/28 10:52:29;;;;;;;21.60;14.30;;;;;;;9.11;80.30;62933.00;5109004;28;20215;-79
2023/12/28 10:54:58;;;;;;;21.80;15.55;;;;;;;9.15;80.13;62939.69;5111679;28;20220;-78
2023/12/28 10:57:32;;;;;;;25.92;14.90;;;;;;;9.15;80.56;62939.69;5108702;28;20206;-79
2023/12/28 11:00:06;;;;;;;25.15;15.52;;;;;;;9.30;80.03;62960.28;5108127;28;20220;-78
2023/12/28 11:02:41;;;;;;;23.25;16.02;;;;;;;9.34;80.15;62959.31;5108410;28;20247;-78
2023/12/28 11:05:08;;;;;;;24.58;15.13;;;;;;;9.42;79.35;62966.56;5110675;28;20240;-78
2023/12/28 11:07:35;;;;;;;23.20;15.10;;;;;;;9.60;78.23;62990.78;5108674;28;20235;-79
2023/12/28 11:10:04;;;;;;;20.73;14.23;;;;;;;9.69;76.92;62994.47;5108091;28;20223;-78
2023/12/28 11:12:33;;;;;;;21.55;13.77;;;;;;;9.62;76.92;62984.69;5109385;28;20237;-78
2023/12/28 11:15:00;;;;;;;24.90;15.38;;;;;;;9.62;77.46;62985.22;5107976;28;20411;-78
2023/12/28 11:17:27;;;;;;;23.58;14.35;;;;;;;9.57;76.08;62982.59;5110948;28;20190;-78
2023/12/28 11:19:54;;;;;;;27.55;14.63;;;;;;;9.65;75.24;62992.88;5108724;28;20450;-78
2023/12/28 11:22:22;;;;;;;21.35;14.18;;;;;;;9.60;75.89;62988.22;5108943;28;20275;-79
2023/12/28 11:24:50;;;;;;;18.88;14.07;;;;;;;9.74;75.95;63000.19;5107189;28;20370;-78
2023/12/28 11:27:17;;;;;;;19.65;13.57;;;;;;;9.83;74.81;63012.03;5108335;28;20226;-78
2023/12/28 11:29:46;;;;;;;27.00;14.65;;;;;;;9.85;74.20;63014.09;5108690;28;20560;-79